Acatitlan, Mexico

8:55 AM CDT on June 23, 2017 (GMT -0500)
Lic Gustavo Diaz Ordaz International | | Change Station

Elev 20 ft 20.68 °N, 105.25 °W | Updated 1 hour ago

Partly Cloudy
Partly Cloudy
79 °F
Feels Like 79 °F
N
5
Wind Variable Wind from NE

Today
High -- | Low -- °F
--% Chance of Precip.
Yesterday
High -- | Low -- °F
Precip. -- in
Pressure 29.84 in
Visibility 10.0 miles
Clouds Scattered Clouds 2500 ft
Scattered Clouds 7000 ft
Dew Point 79 °F
Humidity 100%
Rainfall 0.00 in
Snow Depth Not available.
7:19 AM 8:41 PM
Waning Crescent, 0% visible
METAR MMPR 231246Z 04004KT 10SM SCT025 SCT070 26/26 A2984 RMK 8/530
Pressure 29.84 in
Visibility 10.0 miles
Clouds Scattered Clouds 2500 ft
Scattered Clouds 7000 ft
Dew Point 79 °F
Humidity 100%
Rainfall 0.00 in
Snow Depth Not available.
7:19 AM 8:41 PM
Waning Crescent, 0% visible
METAR MMPR 231246Z 04004KT 10SM SCT025 SCT070 26/26 A2984 RMK 8/530

Get Severe Weather Alerts

Thanks for signing up!

Be on the lookout for a verification email in your inbox.

You'll start receiving the daily forecast at 6 AM.

×

10-Day Weather Forecast

No radar image for this location.
×

Almanac

Astronomy

Jun. 23, 2017 Rise Set
Actual Time
Civil Twilight
Nautical Twilight
Astronomical Twilight
Moon
Length of Visible Light
Length of Day
Tomorrow will be .
, % of the Moon is Illuminated

Today's Extremes

Country Highs Country Lows

Community

WunderPhotos

Category 6

Welcome to Category 6. This is the collective home for Weather Underground's featured writeups by Dr. Jeff Masters (right), Bob Henson (left), Chris Burt, and other regular contributors.

Nearby

Air Quality

  Air Quality AQ Index Pollutant
Not available.

Snow Depth

Station Depth Elevation

Earthquake Activity

City Distance Mag. Time & Date
Minimum magnitude displayed is 2.5.

Coastal Water Temperatures

Place Temperature

Stations

Nearby Weather Stations

Station Location Temp. Windchill Dew Point Humidity Wind Precip. Elev Updated Type